sensor_id;sensor_type;location;lat;lon;timestamp;P1;durP1;ratioP1;P2;durP2;ratioP2
813;SDS011;389;48.710;9.392;2023-08-12T00:02:12;8.03;;;6.60;;
813;SDS011;389;48.710;9.392;2023-08-12T00:04:37;6.47;;;5.87;;
813;SDS011;389;48.710;9.392;2023-08-12T00:07:03;7.40;;;6.30;;
813;SDS011;389;48.710;9.392;2023-08-12T00:09:28;7.47;;;6.70;;
813;SDS011;389;48.710;9.392;2023-08-12T00:11:54;7.30;;;6.60;;
813;SDS011;389;48.710;9.392;2023-08-12T00:14:20;8.03;;;6.30;;
813;SDS011;389;48.710;9.392;2023-08-12T00:16:45;8.33;;;6.27;;
813;SDS011;389;48.710;9.392;2023-08-12T00:19:11;8.00;;;6.40;;
813;SDS011;389;48.710;9.392;2023-08-12T00:21:36;8.00;;;6.33;;
813;SDS011;389;48.710;9.392;2023-08-12T00:24:02;11.13;;;6.90;;
813;SDS011;389;48.710;9.392;2023-08-12T00:26:28;7.33;;;6.53;;
813;SDS011;389;48.710;9.392;2023-08-12T00:28:53;8.27;;;5.60;;
813;SDS011;389;48.710;9.392;2023-08-12T00:31:19;7.40;;;5.77;;
813;SDS011;389;48.710;9.392;2023-08-12T00:33:44;7.83;;;7.03;;
813;SDS011;389;48.710;9.392;2023-08-12T00:36:10;7.40;;;6.70;;
813;SDS011;389;48.710;9.392;2023-08-12T00:38:35;8.60;;;6.93;;
813;SDS011;389;48.710;9.392;2023-08-12T00:41:01;7.23;;;6.40;;
813;SDS011;389;48.710;9.392;2023-08-12T00:43:27;8.20;;;7.17;;
813;SDS011;389;48.710;9.392;2023-08-12T00:45:52;7.40;;;6.70;;
813;SDS011;389;48.710;9.392;2023-08-12T00:48:18;8.43;;;6.40;;
813;SDS011;389;48.710;9.392;2023-08-12T00:50:44;6.83;;;6.13;;
813;SDS011;389;48.710;9.392;2023-08-12T00:53:10;7.63;;;6.83;;
813;SDS011;389;48.710;9.392;2023-08-12T00:55:37;7.53;;;6.60;;
813;SDS011;389;48.710;9.392;2023-08-12T00:58:03;6.70;;;6.10;;
813;SDS011;389;48.710;9.392;2023-08-12T01:00:30;7.60;;;6.80;;
813;SDS011;389;48.710;9.392;2023-08-12T01:02:56;8.30;;;6.43;;
813;SDS011;389;48.710;9.392;2023-08-12T01:05:22;8.73;;;6.50;;
813;SDS011;389;48.710;9.392;2023-08-12T01:07:48;7.60;;;6.70;;
813;SDS011;389;48.710;9.392;2023-08-12T01:10:14;8.50;;;6.03;;
813;SDS011;389;48.710;9.392;2023-08-12T01:12:44;7.93;;;6.67;;
813;SDS011;389;48.710;9.392;2023-08-12T01:15:20;7.03;;;6.13;;
813;SDS011;389;48.710;9.392;2023-08-12T01:17:48;6.97;;;6.27;;
813;SDS011;389;48.710;9.392;2023-08-12T01:20:17;8.37;;;6.70;;
813;SDS011;389;48.710;9.392;2023-08-12T01:22:49;7.80;;;7.00;;
813;SDS011;389;48.710;9.392;2023-08-12T01:25:38;8.17;;;6.50;;
813;SDS011;389;48.710;9.392;2023-08-12T01:28:04;7.97;;;6.90;;
813;SDS011;389;48.710;9.392;2023-08-12T01:30:30;8.40;;;6.60;;
813;SDS011;389;48.710;9.392;2023-08-12T01:33:00;9.77;;;6.63;;
813;SDS011;389;48.710;9.392;2023-08-12T01:35:38;9.40;;;7.40;;
813;SDS011;389;48.710;9.392;2023-08-12T01:38:07;8.70;;;6.63;;
813;SDS011;389;48.710;9.392;2023-08-12T01:40:34;8.70;;;7.50;;
813;SDS011;389;48.710;9.392;2023-08-12T01:43:01;8.40;;;6.93;;
813;SDS011;389;48.710;9.392;2023-08-12T01:45:30;7.60;;;6.90;;
813;SDS011;389;48.710;9.392;2023-08-12T01:47:56;10.93;;;6.67;;
813;SDS011;389;48.710;9.392;2023-08-12T01:50:22;6.90;;;6.20;;
813;SDS011;389;48.710;9.392;2023-08-12T01:52:48;11.30;;;7.37;;
813;SDS011;389;48.710;9.392;2023-08-12T01:55:13;7.77;;;6.90;;
813;SDS011;389;48.710;9.392;2023-08-12T01:57:39;9.43;;;6.80;;
813;SDS011;389;48.710;9.392;2023-08-12T02:00:05;8.00;;;7.10;;
813;SDS011;389;48.710;9.392;2023-08-12T02:02:31;8.43;;;6.93;;
813;SDS011;389;48.710;9.392;2023-08-12T02:04:56;8.03;;;7.03;;
813;SDS011;389;48.710;9.392;2023-08-12T02:07:22;7.67;;;6.87;;
813;SDS011;389;48.710;9.392;2023-08-12T02:09:48;8.10;;;7.30;;
813;SDS011;389;48.710;9.392;2023-08-12T02:12:13;7.43;;;6.20;;
813;SDS011;389;48.710;9.392;2023-08-12T02:14:39;9.77;;;7.43;;
813;SDS011;389;48.710;9.392;2023-08-12T02:17:04;9.57;;;7.60;;
813;SDS011;389;48.710;9.392;2023-08-12T02:19:31;7.43;;;6.73;;
813;SDS011;389;48.710;9.392;2023-08-12T02:21:57;8.13;;;7.07;;
813;SDS011;389;48.710;9.392;2023-08-12T02:24:24;8.70;;;7.20;;
813;SDS011;389;48.710;9.392;2023-08-12T02:26:49;9.47;;;7.67;;
813;SDS011;389;48.710;9.392;2023-08-12T02:29:15;7.73;;;6.93;;
813;SDS011;389;48.710;9.392;2023-08-12T02:31:41;8.37;;;6.57;;
813;SDS011;389;48.710;9.392;2023-08-12T02:34:06;8.07;;;7.23;;
813;SDS011;389;48.710;9.392;2023-08-12T02:36:32;9.50;;;7.40;;
813;SDS011;389;48.710;9.392;2023-08-12T02:38:57;8.00;;;7.27;;
813;SDS011;389;48.710;9.392;2023-08-12T02:41:23;8.10;;;7.30;;
813;SDS011;389;48.710;9.392;2023-08-12T02:43:49;8.93;;;7.43;;
813;SDS011;389;48.710;9.392;2023-08-12T02:46:14;8.80;;;7.03;;
813;SDS011;389;48.710;9.392;2023-08-12T02:48:40;9.97;;;7.40;;
813;SDS011;389;48.710;9.392;2023-08-12T02:51:06;8.60;;;7.30;;
813;SDS011;389;48.710;9.392;2023-08-12T02:53:32;8.27;;;7.47;;
813;SDS011;389;48.710;9.392;2023-08-12T02:55:57;7.60;;;6.80;;
813;SDS011;389;48.710;9.392;2023-08-12T02:58:23;7.60;;;6.80;;
813;SDS011;389;48.710;9.392;2023-08-12T03:00:48;8.00;;;6.80;;
813;SDS011;389;48.710;9.392;2023-08-12T03:03:14;7.63;;;6.77;;
813;SDS011;389;48.710;9.392;2023-08-12T03:05:39;8.13;;;7.33;;
813;SDS011;389;48.710;9.392;2023-08-12T03:08:06;7.80;;;7.00;;
813;SDS011;389;48.710;9.392;2023-08-12T03:10:32;7.83;;;7.03;;
813;SDS011;389;48.710;9.392;2023-08-12T03:12:58;8.13;;;7.33;;
813;SDS011;389;48.710;9.392;2023-08-12T03:15:24;8.10;;;7.17;;
813;SDS011;389;48.710;9.392;2023-08-12T03:17:50;7.40;;;6.70;;
813;SDS011;389;48.710;9.392;2023-08-12T03:20:15;8.33;;;7.40;;
813;SDS011;389;48.710;9.392;2023-08-12T03:22:41;8.40;;;6.80;;
813;SDS011;389;48.710;9.392;2023-08-12T03:25:06;9.40;;;7.37;;
813;SDS011;389;48.710;9.392;2023-08-12T03:27:32;8.37;;;7.17;;
813;SDS011;389;48.710;9.392;2023-08-12T03:29:58;7.50;;;6.60;;
813;SDS011;389;48.710;9.392;2023-08-12T03:32:24;7.63;;;6.70;;
813;SDS011;389;48.710;9.392;2023-08-12T03:34:50;9.40;;;7.30;;
813;SDS011;389;48.710;9.392;2023-08-12T03:37:16;7.30;;;6.60;;
813;SDS011;389;48.710;9.392;2023-08-12T03:39:42;7.83;;;7.03;;
813;SDS011;389;48.710;9.392;2023-08-12T03:42:07;7.50;;;6.80;;
813;SDS011;389;48.710;9.392;2023-08-12T03:44:33;8.00;;;7.20;;
813;SDS011;389;48.710;9.392;2023-08-12T03:46:58;7.10;;;6.40;;
813;SDS011;389;48.710;9.392;2023-08-12T03:49:24;7.30;;;6.60;;
813;SDS011;389;48.710;9.392;2023-08-12T03:51:50;8.43;;;6.90;;
813;SDS011;389;48.710;9.392;2023-08-12T03:54:15;9.43;;;7.13;;
813;SDS011;389;48.710;9.392;2023-08-12T03:56:41;7.70;;;6.80;;
813;SDS011;389;48.710;9.392;2023-08-12T03:59:06;14.67;;;9.60;;
813;SDS011;389;48.710;9.392;2023-08-12T04:01:32;8.40;;;7.50;;
813;SDS011;389;48.710;9.392;2023-08-12T04:03:58;7.47;;;6.73;;
813;SDS011;389;48.710;9.392;2023-08-12T04:06:23;9.37;;;7.50;;
813;SDS011;389;48.710;9.392;2023-08-12T04:08:49;7.97;;;7.20;;
813;SDS011;389;48.710;9.392;2023-08-12T04:11:14;8.33;;;7.43;;
813;SDS011;389;48.710;9.392;2023-08-12T04:13:40;7.33;;;6.63;;
813;SDS011;389;48.710;9.392;2023-08-12T04:16:05;7.13;;;6.43;;
813;SDS011;389;48.710;9.392;2023-08-12T04:18:31;7.30;;;6.50;;
813;SDS011;389;48.710;9.392;2023-08-12T04:20:56;8.87;;;7.07;;
813;SDS011;389;48.710;9.392;2023-08-12T04:23:22;6.90;;;6.00;;
813;SDS011;389;48.710;9.392;2023-08-12T04:25:47;7.23;;;6.57;;
813;SDS011;389;48.710;9.392;2023-08-12T04:28:14;7.73;;;6.83;;
813;SDS011;389;48.710;9.392;2023-08-12T04:30:43;7.57;;;6.70;;
813;SDS011;389;48.710;9.392;2023-08-12T04:33:12;7.37;;;6.67;;
813;SDS011;389;48.710;9.392;2023-08-12T04:35:38;7.20;;;6.50;;
813;SDS011;389;48.710;9.392;2023-08-12T04:38:04;8.03;;;7.20;;
813;SDS011;389;48.710;9.392;2023-08-12T04:40:29;7.73;;;7.00;;
813;SDS011;389;48.710;9.392;2023-08-12T04:42:56;7.40;;;6.53;;
813;SDS011;389;48.710;9.392;2023-08-12T04:45:23;8.87;;;6.47;;
813;SDS011;389;48.710;9.392;2023-08-12T04:47:49;7.63;;;6.83;;
813;SDS011;389;48.710;9.392;2023-08-12T04:50:14;7.17;;;6.43;;
813;SDS011;389;48.710;9.392;2023-08-12T04:52:40;9.83;;;7.90;;
813;SDS011;389;48.710;9.392;2023-08-12T04:55:05;7.50;;;6.80;;
813;SDS011;389;48.710;9.392;2023-08-12T04:57:31;8.17;;;7.10;;
813;SDS011;389;48.710;9.392;2023-08-12T04:59:57;8.80;;;7.33;;
813;SDS011;389;48.710;9.392;2023-08-12T05:02:22;8.70;;;7.40;;
813;SDS011;389;48.710;9.392;2023-08-12T05:04:48;7.50;;;6.73;;
813;SDS011;389;48.710;9.392;2023-08-12T05:07:14;7.77;;;6.83;;
813;SDS011;389;48.710;9.392;2023-08-12T05:09:40;8.33;;;6.90;;
813;SDS011;389;48.710;9.392;2023-08-12T05:12:08;8.93;;;7.17;;
813;SDS011;389;48.710;9.392;2023-08-12T05:14:34;10.63;;;7.67;;
813;SDS011;389;48.710;9.392;2023-08-12T05:17:00;10.53;;;7.80;;
813;SDS011;389;48.710;9.392;2023-08-12T05:19:25;7.83;;;7.00;;
813;SDS011;389;48.710;9.392;2023-08-12T05:21:51;9.60;;;7.03;;
813;SDS011;389;48.710;9.392;2023-08-12T05:24:16;10.53;;;7.73;;
813;SDS011;389;48.710;9.392;2023-08-12T05:26:42;7.40;;;6.70;;
813;SDS011;389;48.710;9.392;2023-08-12T05:29:08;8.97;;;7.00;;
813;SDS011;389;48.710;9.392;2023-08-12T05:31:34;9.00;;;6.80;;
813;SDS011;389;48.710;9.392;2023-08-12T05:33:59;9.20;;;8.20;;
813;SDS011;389;48.710;9.392;2023-08-12T05:36:25;7.70;;;6.77;;
813;SDS011;389;48.710;9.392;2023-08-12T05:38:50;9.30;;;7.40;;
813;SDS011;389;48.710;9.392;2023-08-12T05:41:16;9.90;;;7.60;;
813;SDS011;389;48.710;9.392;2023-08-12T05:43:41;8.03;;;7.23;;
813;SDS011;389;48.710;9.392;2023-08-12T05:46:07;9.10;;;7.23;;
813;SDS011;389;48.710;9.392;2023-08-12T05:48:32;8.17;;;7.33;;
813;SDS011;389;48.710;9.392;2023-08-12T05:50:58;7.77;;;6.97;;
813;SDS011;389;48.710;9.392;2023-08-12T05:53:23;8.20;;;7.10;;
813;SDS011;389;48.710;9.392;2023-08-12T05:55:50;8.13;;;7.30;;
813;SDS011;389;48.710;9.392;2023-08-12T05:58:16;7.90;;;6.77;;
813;SDS011;389;48.710;9.392;2023-08-12T06:00:41;7.70;;;7.00;;
813;SDS011;389;48.710;9.392;2023-08-12T06:03:10;7.50;;;6.80;;
813;SDS011;389;48.710;9.392;2023-08-12T06:05:36;7.80;;;6.73;;
813;SDS011;389;48.710;9.392;2023-08-12T06:08:02;8.70;;;7.57;;
813;SDS011;389;48.710;9.392;2023-08-12T06:10:28;7.90;;;7.10;;
813;SDS011;389;48.710;9.392;2023-08-12T06:12:53;7.97;;;7.13;;
813;SDS011;389;48.710;9.392;2023-08-12T06:15:19;8.70;;;7.17;;
813;SDS011;389;48.710;9.392;2023-08-12T06:17:44;7.50;;;6.73;;
813;SDS011;389;48.710;9.392;2023-08-12T06:20:10;8.07;;;7.07;;
813;SDS011;389;48.710;9.392;2023-08-12T06:22:36;9.47;;;7.23;;
813;SDS011;389;48.710;9.392;2023-08-12T06:25:02;9.93;;;8.30;;
813;SDS011;389;48.710;9.392;2023-08-12T06:27:28;11.07;;;8.40;;
813;SDS011;389;48.710;9.392;2023-08-12T06:29:53;9.50;;;7.60;;
813;SDS011;389;48.710;9.392;2023-08-12T06:32:19;7.40;;;6.70;;
813;SDS011;389;48.710;9.392;2023-08-12T06:34:44;6.97;;;6.37;;
813;SDS011;389;48.710;9.392;2023-08-12T06:37:10;8.20;;;6.73;;
813;SDS011;389;48.710;9.392;2023-08-12T06:39:35;7.40;;;6.40;;
813;SDS011;389;48.710;9.392;2023-08-12T06:42:01;7.70;;;6.97;;
813;SDS011;389;48.710;9.392;2023-08-12T06:44:28;7.60;;;6.90;;
813;SDS011;389;48.710;9.392;2023-08-12T06:46:54;7.27;;;6.57;;
813;SDS011;389;48.710;9.392;2023-08-12T06:49:19;7.60;;;6.80;;
813;SDS011;389;48.710;9.392;2023-08-12T06:51:45;6.93;;;6.30;;
813;SDS011;389;48.710;9.392;2023-08-12T06:59:42;8.20;;;7.37;;
813;SDS011;389;48.710;9.392;2023-08-12T07:02:11;7.47;;;6.73;;
813;SDS011;389;48.710;9.392;2023-08-12T07:04:37;7.43;;;6.60;;
813;SDS011;389;48.710;9.392;2023-08-12T07:07:02;7.40;;;6.70;;
813;SDS011;389;48.710;9.392;2023-08-12T07:09:28;8.30;;;7.17;;
813;SDS011;389;48.710;9.392;2023-08-12T07:11:54;7.20;;;6.50;;
813;SDS011;389;48.710;9.392;2023-08-12T07:14:19;8.13;;;7.43;;
813;SDS011;389;48.710;9.392;2023-08-12T07:16:47;7.87;;;7.07;;
813;SDS011;389;48.710;9.392;2023-08-12T07:19:13;7.60;;;6.90;;
813;SDS011;389;48.710;9.392;2023-08-12T07:21:40;7.87;;;7.07;;
813;SDS011;389;48.710;9.392;2023-08-12T07:31:10;7.33;;;6.53;;
813;SDS011;389;48.710;9.392;2023-08-12T07:34:05;7.40;;;6.30;;
813;SDS011;389;48.710;9.392;2023-08-12T07:36:48;7.50;;;6.60;;
813;SDS011;389;48.710;9.392;2023-08-12T07:39:16;9.27;;;7.20;;
813;SDS011;389;48.710;9.392;2023-08-12T07:41:42;7.30;;;6.60;;
813;SDS011;389;48.710;9.392;2023-08-12T07:44:08;8.17;;;6.97;;
813;SDS011;389;48.710;9.392;2023-08-12T07:46:36;7.77;;;7.07;;
813;SDS011;389;48.710;9.392;2023-08-12T07:49:02;7.83;;;7.10;;
813;SDS011;389;48.710;9.392;2023-08-12T07:51:28;8.10;;;7.20;;
813;SDS011;389;48.710;9.392;2023-08-12T07:54:00;7.80;;;6.87;;
813;SDS011;389;48.710;9.392;2023-08-12T08:03:26;11.70;;;6.67;;
813;SDS011;389;48.710;9.392;2023-08-12T08:06:06;7.40;;;6.70;;
813;SDS011;389;48.710;9.392;2023-08-12T08:08:31;7.10;;;6.47;;
813;SDS011;389;48.710;9.392;2023-08-12T08:11:03;7.10;;;6.47;;
813;SDS011;389;48.710;9.392;2023-08-12T08:13:31;7.50;;;6.80;;
813;SDS011;389;48.710;9.392;2023-08-12T08:15:59;7.67;;;6.87;;
813;SDS011;389;48.710;9.392;2023-08-12T08:18:25;6.90;;;6.30;;
813;SDS011;389;48.710;9.392;2023-08-12T08:20:50;6.70;;;6.10;;
813;SDS011;389;48.710;9.392;2023-08-12T08:23:39;6.90;;;6.30;;
813;SDS011;389;48.710;9.392;2023-08-12T08:26:15;6.93;;;6.40;;
813;SDS011;389;48.710;9.392;2023-08-12T08:28:40;7.13;;;6.43;;
813;SDS011;389;48.710;9.392;2023-08-12T08:31:06;6.70;;;6.10;;
813;SDS011;389;48.710;9.392;2023-08-12T08:33:32;7.70;;;6.90;;
813;SDS011;389;48.710;9.392;2023-08-12T08:35:57;6.60;;;6.00;;
813;SDS011;389;48.710;9.392;2023-08-12T08:38:44;7.33;;;6.53;;
813;SDS011;389;48.710;9.392;2023-08-12T08:41:14;6.70;;;6.10;;
813;SDS011;389;48.710;9.392;2023-08-12T08:57:43;7.50;;;6.20;;
813;SDS011;389;48.710;9.392;2023-08-12T09:00:12;6.93;;;6.33;;
813;SDS011;389;48.710;9.392;2023-08-12T09:02:39;6.77;;;6.10;;
813;SDS011;389;48.710;9.392;2023-08-12T09:05:06;6.67;;;6.10;;
813;SDS011;389;48.710;9.392;2023-08-12T09:07:32;6.33;;;5.83;;
813;SDS011;389;48.710;9.392;2023-08-12T09:09:59;6.20;;;5.70;;
813;SDS011;389;48.710;9.392;2023-08-12T09:12:29;6.30;;;5.70;;
813;SDS011;389;48.710;9.392;2023-08-12T09:14:56;6.33;;;5.83;;
813;SDS011;389;48.710;9.392;2023-08-12T09:17:22;6.80;;;6.20;;
813;SDS011;389;48.710;9.392;2023-08-12T09:19:47;6.00;;;5.40;;
813;SDS011;389;48.710;9.392;2023-08-12T09:22:14;5.80;;;4.73;;
813;SDS011;389;48.710;9.392;2023-08-12T09:24:40;6.30;;;5.73;;
813;SDS011;389;48.710;9.392;2023-08-12T09:27:05;6.30;;;5.60;;
813;SDS011;389;48.710;9.392;2023-08-12T09:29:31;5.83;;;5.30;;
813;SDS011;389;48.710;9.392;2023-08-12T09:32:10;5.70;;;5.30;;
813;SDS011;389;48.710;9.392;2023-08-12T09:34:37;4.73;;;4.33;;
813;SDS011;389;48.710;9.392;2023-08-12T09:37:13;5.77;;;5.27;;
813;SDS011;389;48.710;9.392;2023-08-12T09:39:42;5.30;;;4.80;;
813;SDS011;389;48.710;9.392;2023-08-12T09:42:07;6.73;;;5.37;;
813;SDS011;389;48.710;9.392;2023-08-12T09:44:40;5.90;;;5.00;;
813;SDS011;389;48.710;9.392;2023-08-12T09:47:06;4.97;;;4.57;;
813;SDS011;389;48.710;9.392;2023-08-12T09:49:33;5.50;;;5.00;;
813;SDS011;389;48.710;9.392;2023-08-12T09:52:00;5.80;;;5.30;;
813;SDS011;389;48.710;9.392;2023-08-12T09:54:27;5.40;;;5.00;;
813;SDS011;389;48.710;9.392;2023-08-12T09:56:57;5.50;;;5.10;;
813;SDS011;389;48.710;9.392;2023-08-12T09:59:24;5.60;;;5.07;;
813;SDS011;389;48.710;9.392;2023-08-12T10:01:51;5.90;;;5.30;;
813;SDS011;389;48.710;9.392;2023-08-12T10:04:18;4.80;;;4.47;;
813;SDS011;389;48.710;9.392;2023-08-12T10:06:48;5.03;;;4.30;;
813;SDS011;389;48.710;9.392;2023-08-12T10:09:14;5.60;;;5.10;;
813;SDS011;389;48.710;9.392;2023-08-12T10:11:41;4.70;;;4.30;;
813;SDS011;389;48.710;9.392;2023-08-12T10:14:08;5.25;;;4.68;;
813;SDS011;389;48.710;9.392;2023-08-12T10:16:35;4.57;;;4.18;;
813;SDS011;389;48.710;9.392;2023-08-12T10:19:02;5.75;;;5.25;;
813;SDS011;389;48.710;9.392;2023-08-12T10:21:30;5.28;;;4.45;;
813;SDS011;389;48.710;9.392;2023-08-12T10:23:57;5.75;;;4.40;;
813;SDS011;389;48.710;9.392;2023-08-12T10:26:24;4.68;;;4.10;;
813;SDS011;389;48.710;9.392;2023-08-12T10:28:54;4.70;;;4.30;;
813;SDS011;389;48.710;9.392;2023-08-12T10:31:19;4.90;;;4.40;;
813;SDS011;389;48.710;9.392;2023-08-12T10:33:45;4.20;;;3.90;;
813;SDS011;389;48.710;9.392;2023-08-12T10:36:14;4.72;;;4.32;;
813;SDS011;389;48.710;9.392;2023-08-12T10:38:40;4.80;;;4.40;;
813;SDS011;389;48.710;9.392;2023-08-12T10:41:15;4.68;;;3.90;;
813;SDS011;389;48.710;9.392;2023-08-12T10:43:59;5.75;;;3.90;;
813;SDS011;389;48.710;9.392;2023-08-12T10:46:33;4.57;;;4.18;;
813;SDS011;389;48.710;9.392;2023-08-12T10:49:03;5.40;;;4.40;;
813;SDS011;389;48.710;9.392;2023-08-12T10:57:06;4.55;;;4.25;;
813;SDS011;389;48.710;9.392;2023-08-12T11:04:56;4.05;;;3.75;;
813;SDS011;389;48.710;9.392;2023-08-12T11:07:32;4.20;;;3.55;;
813;SDS011;389;48.710;9.392;2023-08-12T11:10:13;5.15;;;3.90;;
813;SDS011;389;48.710;9.392;2023-08-12T11:12:41;5.30;;;3.95;;
813;SDS011;389;48.710;9.392;2023-08-12T11:15:16;4.57;;;4.18;;
813;SDS011;389;48.710;9.392;2023-08-12T11:17:44;4.15;;;3.85;;
813;SDS011;389;48.710;9.392;2023-08-12T11:20:12;4.03;;;3.72;;
813;SDS011;389;48.710;9.392;2023-08-12T11:22:39;6.60;;;4.18;;
813;SDS011;389;48.710;9.392;2023-08-12T11:25:07;4.10;;;3.80;;
813;SDS011;389;48.710;9.392;2023-08-12T11:27:36;4.38;;;4.00;;
813;SDS011;389;48.710;9.392;2023-08-12T11:30:05;3.90;;;3.60;;
813;SDS011;389;48.710;9.392;2023-08-12T11:32:32;4.25;;;3.85;;
813;SDS011;389;48.710;9.392;2023-08-12T11:34:58;9.15;;;3.60;;
813;SDS011;389;48.710;9.392;2023-08-12T11:37:24;3.90;;;3.60;;
813;SDS011;389;48.710;9.392;2023-08-12T11:39:53;4.22;;;3.85;;
813;SDS011;389;48.710;9.392;2023-08-12T11:42:18;4.15;;;3.85;;
813;SDS011;389;48.710;9.392;2023-08-12T11:44:44;4.38;;;3.95;;
813;SDS011;389;48.710;9.392;2023-08-12T11:47:10;5.15;;;3.88;;
813;SDS011;389;48.710;9.392;2023-08-12T11:49:35;3.85;;;3.55;;
813;SDS011;389;48.710;9.392;2023-08-12T11:52:01;4.10;;;3.30;;
813;SDS011;389;48.710;9.392;2023-08-12T11:54:27;3.95;;;3.58;;
813;SDS011;389;48.710;9.392;2023-08-12T11:56:53;5.65;;;3.80;;
813;SDS011;389;48.710;9.392;2023-08-12T11:59:21;4.35;;;3.50;;
813;SDS011;389;48.710;9.392;2023-08-12T12:01:48;4.97;;;3.65;;
813;SDS011;389;48.710;9.392;2023-08-12T12:04:14;3.83;;;3.53;;
813;SDS011;389;48.710;9.392;2023-08-12T12:06:41;4.53;;;3.58;;
813;SDS011;389;48.710;9.392;2023-08-12T12:09:07;4.82;;;4.03;;
813;SDS011;389;48.710;9.392;2023-08-12T12:11:37;4.18;;;3.70;;
813;SDS011;389;48.710;9.392;2023-08-12T12:14:04;4.10;;;3.70;;
813;SDS011;389;48.710;9.392;2023-08-12T12:16:41;6.10;;;3.63;;
813;SDS011;389;48.710;9.392;2023-08-12T12:19:09;4.47;;;3.60;;
813;SDS011;389;48.710;9.392;2023-08-12T12:21:50;5.22;;;3.72;;
813;SDS011;389;48.710;9.392;2023-08-12T12:24:18;3.63;;;3.20;;
813;SDS011;389;48.710;9.392;2023-08-12T12:26:45;4.50;;;4.07;;
813;SDS011;389;48.710;9.392;2023-08-12T12:29:12;6.45;;;3.65;;
813;SDS011;389;48.710;9.392;2023-08-12T12:31:39;4.82;;;3.35;;
813;SDS011;389;48.710;9.392;2023-08-12T12:34:06;4.38;;;3.67;;
813;SDS011;389;48.710;9.392;2023-08-12T12:36:35;5.67;;;2.93;;
813;SDS011;389;48.710;9.392;2023-08-12T12:39:02;5.60;;;3.95;;
813;SDS011;389;48.710;9.392;2023-08-12T12:41:28;5.30;;;3.93;;
813;SDS011;389;48.710;9.392;2023-08-12T12:43:54;4.90;;;4.40;;
813;SDS011;389;48.710;9.392;2023-08-12T12:46:19;3.97;;;3.63;;
813;SDS011;389;48.710;9.392;2023-08-12T12:48:45;3.90;;;3.50;;
813;SDS011;389;48.710;9.392;2023-08-12T12:51:12;4.17;;;3.57;;
813;SDS011;389;48.710;9.392;2023-08-12T12:53:38;5.10;;;3.30;;
813;SDS011;389;48.710;9.392;2023-08-12T12:56:04;6.70;;;4.63;;
813;SDS011;389;48.710;9.392;2023-08-12T12:58:31;6.17;;;3.83;;
813;SDS011;389;48.710;9.392;2023-08-12T13:00:58;7.60;;;4.17;;
813;SDS011;389;48.710;9.392;2023-08-12T13:03:24;5.00;;;3.60;;
813;SDS011;389;48.710;9.392;2023-08-12T13:05:49;5.93;;;4.07;;
813;SDS011;389;48.710;9.392;2023-08-12T13:08:15;4.47;;;3.43;;
813;SDS011;389;48.710;9.392;2023-08-12T13:10:41;5.43;;;4.13;;
813;SDS011;389;48.710;9.392;2023-08-12T13:13:06;5.77;;;4.30;;
813;SDS011;389;48.710;9.392;2023-08-12T13:15:32;3.80;;;3.37;;
813;SDS011;389;48.710;9.392;2023-08-12T13:17:58;5.83;;;4.70;;
813;SDS011;389;48.710;9.392;2023-08-12T13:20:24;4.27;;;3.90;;
813;SDS011;389;48.710;9.392;2023-08-12T13:22:49;4.80;;;3.60;;
813;SDS011;389;48.710;9.392;2023-08-12T13:25:15;4.73;;;4.20;;
813;SDS011;389;48.710;9.392;2023-08-12T13:27:40;6.10;;;4.57;;
813;SDS011;389;48.710;9.392;2023-08-12T13:30:06;5.07;;;4.53;;
813;SDS011;389;48.710;9.392;2023-08-12T13:32:32;5.47;;;4.80;;
813;SDS011;389;48.710;9.392;2023-08-12T13:34:58;6.90;;;4.73;;
813;SDS011;389;48.710;9.392;2023-08-12T13:37:24;5.20;;;4.70;;
813;SDS011;389;48.710;9.392;2023-08-12T13:39:49;6.43;;;4.60;;
813;SDS011;389;48.710;9.392;2023-08-12T13:42:15;7.57;;;4.77;;
813;SDS011;389;48.710;9.392;2023-08-12T13:44:40;5.30;;;4.07;;
813;SDS011;389;48.710;9.392;2023-08-12T13:47:06;5.17;;;4.67;;
813;SDS011;389;48.710;9.392;2023-08-12T13:49:31;6.47;;;5.27;;
813;SDS011;389;48.710;9.392;2023-08-12T13:51:57;5.60;;;4.60;;
813;SDS011;389;48.710;9.392;2023-08-12T13:54:24;7.30;;;4.77;;
813;SDS011;389;48.710;9.392;2023-08-12T13:56:49;6.47;;;4.90;;
813;SDS011;389;48.710;9.392;2023-08-12T13:59:15;5.20;;;4.60;;
813;SDS011;389;48.710;9.392;2023-08-12T14:01:42;5.50;;;4.77;;
813;SDS011;389;48.710;9.392;2023-08-12T14:04:08;4.33;;;3.93;;
813;SDS011;389;48.710;9.392;2023-08-12T14:06:33;5.73;;;4.43;;
813;SDS011;389;48.710;9.392;2023-08-12T14:08:59;5.77;;;4.27;;
813;SDS011;389;48.710;9.392;2023-08-12T14:11:24;5.43;;;3.97;;
813;SDS011;389;48.710;9.392;2023-08-12T14:13:50;4.77;;;4.27;;
813;SDS011;389;48.710;9.392;2023-08-12T14:16:16;8.30;;;4.20;;
813;SDS011;389;48.710;9.392;2023-08-12T14:18:41;4.57;;;3.90;;
813;SDS011;389;48.710;9.392;2023-08-12T14:21:07;4.30;;;3.87;;
813;SDS011;389;48.710;9.392;2023-08-12T14:23:33;6.80;;;3.83;;
813;SDS011;389;48.710;9.392;2023-08-12T14:25:58;4.87;;;3.80;;
813;SDS011;389;48.710;9.392;2023-08-12T14:28:24;4.60;;;3.27;;
813;SDS011;389;48.710;9.392;2023-08-12T14:30:49;3.30;;;2.90;;
813;SDS011;389;48.710;9.392;2023-08-12T14:33:15;3.57;;;3.10;;
813;SDS011;389;48.710;9.392;2023-08-12T14:35:40;3.50;;;3.00;;
813;SDS011;389;48.710;9.392;2023-08-12T14:38:06;3.20;;;2.90;;
813;SDS011;389;48.710;9.392;2023-08-12T14:40:32;3.30;;;3.00;;
813;SDS011;389;48.710;9.392;2023-08-12T14:42:57;2.93;;;2.70;;
813;SDS011;389;48.710;9.392;2023-08-12T14:45:23;3.30;;;2.97;;
813;SDS011;389;48.710;9.392;2023-08-12T14:47:49;5.33;;;3.33;;
813;SDS011;389;48.710;9.392;2023-08-12T14:50:14;3.10;;;2.73;;
813;SDS011;389;48.710;9.392;2023-08-12T14:52:40;3.53;;;3.10;;
813;SDS011;389;48.710;9.392;2023-08-12T14:55:05;3.43;;;3.00;;
813;SDS011;389;48.710;9.392;2023-08-12T14:57:31;3.50;;;3.10;;
813;SDS011;389;48.710;9.392;2023-08-12T14:59:57;3.27;;;2.97;;
813;SDS011;389;48.710;9.392;2023-08-12T15:02:23;3.33;;;3.03;;
813;SDS011;389;48.710;9.392;2023-08-12T15:04:49;3.70;;;3.10;;
813;SDS011;389;48.710;9.392;2023-08-12T15:07:15;3.70;;;3.40;;
813;SDS011;389;48.710;9.392;2023-08-12T15:09:41;4.03;;;3.33;;
813;SDS011;389;48.710;9.392;2023-08-12T15:12:07;3.70;;;3.40;;
813;SDS011;389;48.710;9.392;2023-08-12T15:14:33;4.27;;;3.53;;
813;SDS011;389;48.710;9.392;2023-08-12T15:16:59;3.57;;;3.00;;
813;SDS011;389;48.710;9.392;2023-08-12T15:19:25;3.57;;;3.13;;
813;SDS011;389;48.710;9.392;2023-08-12T15:21:50;4.17;;;3.00;;
813;SDS011;389;48.710;9.392;2023-08-12T15:24:16;4.13;;;2.80;;
813;SDS011;389;48.710;9.392;2023-08-12T15:26:42;4.40;;;3.00;;
813;SDS011;389;48.710;9.392;2023-08-12T15:29:07;3.50;;;3.20;;
813;SDS011;389;48.710;9.392;2023-08-12T15:31:33;4.40;;;3.20;;
813;SDS011;389;48.710;9.392;2023-08-12T15:34:01;3.60;;;3.30;;
813;SDS011;389;48.710;9.392;2023-08-12T15:36:26;4.27;;;3.30;;
813;SDS011;389;48.710;9.392;2023-08-12T15:38:52;3.30;;;3.03;;
813;SDS011;389;48.710;9.392;2023-08-12T15:41:17;3.70;;;3.30;;
813;SDS011;389;48.710;9.392;2023-08-12T15:43:43;4.27;;;3.87;;
813;SDS011;389;48.710;9.392;2023-08-12T15:46:09;4.00;;;3.70;;
813;SDS011;389;48.710;9.392;2023-08-12T15:48:35;3.77;;;3.47;;
813;SDS011;389;48.710;9.392;2023-08-12T15:51:00;3.70;;;3.40;;
813;SDS011;389;48.710;9.392;2023-08-12T15:53:26;3.53;;;3.27;;
813;SDS011;389;48.710;9.392;2023-08-12T15:55:52;4.60;;;3.60;;
813;SDS011;389;48.710;9.392;2023-08-12T15:58:18;4.37;;;3.90;;
813;SDS011;389;48.710;9.392;2023-08-12T16:00:47;5.20;;;3.73;;
813;SDS011;389;48.710;9.392;2023-08-12T16:03:16;4.70;;;4.20;;
813;SDS011;389;48.710;9.392;2023-08-12T16:05:43;7.77;;;4.20;;
813;SDS011;389;48.710;9.392;2023-08-12T16:08:08;8.67;;;7.77;;
813;SDS011;389;48.710;9.392;2023-08-12T16:10:35;5.40;;;4.90;;
813;SDS011;389;48.710;9.392;2023-08-12T16:13:00;5.60;;;4.40;;
813;SDS011;389;48.710;9.392;2023-08-12T16:15:26;4.43;;;4.03;;
813;SDS011;389;48.710;9.392;2023-08-12T16:17:52;3.80;;;3.47;;
813;SDS011;389;48.710;9.392;2023-08-12T16:20:18;4.30;;;3.90;;
813;SDS011;389;48.710;9.392;2023-08-12T16:22:43;4.30;;;3.90;;
813;SDS011;389;48.710;9.392;2023-08-12T16:25:09;4.20;;;3.80;;
813;SDS011;389;48.710;9.392;2023-08-12T16:30:04;4.93;;;4.03;;